sensor_id;sensor_type;location;lat;lon;timestamp;pressure;altitude;pressure_sealevel;temperature;humidity
10712;BME280;5407;51.234;6.804;2022-11-20T00:00:39;100720.00;;;21.01;44.77
10712;BME280;5407;51.234;6.804;2022-11-20T00:03:06;100724.28;;;21.02;44.79
10712;BME280;5407;51.234;6.804;2022-11-20T00:05:34;100726.28;;;21.02;44.52
10712;BME280;5407;51.234;6.804;2022-11-20T00:08:01;100721.56;;;21.02;44.58
10712;BME280;5407;51.234;6.804;2022-11-20T00:10:28;100719.59;;;21.03;44.71
10712;BME280;5407;51.234;6.804;2022-11-20T00:12:55;100716.06;;;21.02;44.56
10712;BME280;5407;51.234;6.804;2022-11-20T00:15:24;100714.88;;;21.03;44.79
10712;BME280;5407;51.234;6.804;2022-11-20T00:17:51;100712.13;;;21.03;44.59
10712;BME280;5407;51.234;6.804;2022-11-20T00:20:18;100717.63;;;21.03;44.54
10712;BME280;5407;51.234;6.804;2022-11-20T00:22:46;100717.63;;;21.03;44.53
10712;BME280;5407;51.234;6.804;2022-11-20T00:25:13;100723.09;;;21.03;44.33
10712;BME280;5407;51.234;6.804;2022-11-20T00:27:40;100716.44;;;21.04;44.45
10712;BME280;5407;51.234;6.804;2022-11-20T00:30:07;100713.69;;;21.04;44.40
10712;BME280;5407;51.234;6.804;2022-11-20T00:32:35;100716.44;;;21.04;44.56
10712;BME280;5407;51.234;6.804;2022-11-20T00:35:01;100707.44;;;21.04;44.47
10712;BME280;5407;51.234;6.804;2022-11-20T00:37:28;100713.69;;;21.04;44.46
10712;BME280;5407;51.234;6.804;2022-11-20T00:39:57;100716.44;;;21.04;44.44
10712;BME280;5407;51.234;6.804;2022-11-20T00:42:23;100715.25;;;21.05;44.41
10712;BME280;5407;51.234;6.804;2022-11-20T00:44:50;100715.25;;;21.05;44.42
10712;BME280;5407;51.234;6.804;2022-11-20T00:47:17;100714.06;;;21.06;44.28
10712;BME280;5407;51.234;6.804;2022-11-20T00:49:44;100707.38;;;21.07;44.37
10712;BME280;5407;51.234;6.804;2022-11-20T00:52:11;100709.75;;;21.05;44.38
10712;BME280;5407;51.234;6.804;2022-11-20T00:54:37;100705.06;;;21.06;44.23
10712;BME280;5407;51.234;6.804;2022-11-20T00:57:05;100705.06;;;21.06;44.31
10712;BME280;5407;51.234;6.804;2022-11-20T00:59:32;100704.28;;;21.05;44.35
10712;BME280;5407;51.234;6.804;2022-11-20T01:01:59;100705.06;;;21.06;44.31
10712;BME280;5407;51.234;6.804;2022-11-20T01:04:26;100701.91;;;21.07;44.49
10712;BME280;5407;51.234;6.804;2022-11-20T01:06:53;100699.16;;;21.07;44.28
10712;BME280;5407;51.234;6.804;2022-11-20T01:09:20;100699.56;;;21.06;44.33
10712;BME280;5407;51.234;6.804;2022-11-20T01:11:46;100701.13;;;21.07;44.19
10712;BME280;5407;51.234;6.804;2022-11-20T01:14:17;100696.84;;;21.06;44.26
10712;BME280;5407;51.234;6.804;2022-11-20T01:16:46;100687.81;;;21.05;44.34
10712;BME280;5407;51.234;6.804;2022-11-20T01:19:15;100696.41;;;21.07;44.43
10712;BME280;5407;51.234;6.804;2022-11-20T01:21:43;100685.44;;;21.07;44.43
10712;BME280;5407;51.234;6.804;2022-11-20T01:24:13;100687.00;;;21.08;44.37
10712;BME280;5407;51.234;6.804;2022-11-20T01:26:42;100684.66;;;21.07;44.44
10712;BME280;5407;51.234;6.804;2022-11-20T01:29:13;100689.38;;;21.06;44.22
10712;BME280;5407;51.234;6.804;2022-11-20T01:31:43;100696.41;;;21.07;44.40
10712;BME280;5407;51.234;6.804;2022-11-20T01:34:14;100692.47;;;21.08;44.31
10712;BME280;5407;51.234;6.804;2022-11-20T01:36:41;100706.19;;;21.08;44.42
10712;BME280;5407;51.234;6.804;2022-11-20T01:39:11;100698.03;;;21.05;44.47
10712;BME280;5407;51.234;6.804;2022-11-20T01:41:39;100687.06;;;21.05;44.77
10712;BME280;5407;51.234;6.804;2022-11-20T01:44:59;100689.38;;;21.06;44.79
10712;BME280;5407;51.234;6.804;2022-11-20T01:47:33;100689.72;;;21.08;45.00
10712;BME280;5407;51.234;6.804;2022-11-20T01:50:05;100689.34;;;21.10;44.91
10712;BME280;5407;51.234;6.804;2022-11-20T01:52:34;100686.19;;;21.11;44.79
10712;BME280;5407;51.234;6.804;2022-11-20T01:55:07;100688.94;;;21.11;44.73
10712;BME280;5407;51.234;6.804;2022-11-20T01:57:35;100683.03;;;21.13;44.75
10712;BME280;5407;51.234;6.804;2022-11-20T02:00:07;100677.97;;;21.11;44.69
10712;BME280;5407;51.234;6.804;2022-11-20T02:02:47;100682.25;;;21.12;44.71
10712;BME280;5407;51.234;6.804;2022-11-20T02:05:22;100677.16;;;21.11;44.66
10712;BME280;5407;51.234;6.804;2022-11-20T02:07:50;100676.78;;;21.12;44.78
10712;BME280;5407;51.234;6.804;2022-11-20T02:10:17;100675.22;;;21.11;44.69
10712;BME280;5407;51.234;6.804;2022-11-20T02:12:44;100670.91;;;21.10;44.58
10712;BME280;5407;51.234;6.804;2022-11-20T02:15:34;100669.75;;;21.11;44.72
10712;BME280;5407;51.234;6.804;2022-11-20T02:18:02;100665.41;;;21.10;44.74
10712;BME280;5407;51.234;6.804;2022-11-20T02:20:29;100661.09;;;21.09;44.78
10712;BME280;5407;51.234;6.804;2022-11-20T02:22:59;100654.06;;;21.08;44.68
10712;BME280;5407;51.234;6.804;2022-11-20T02:25:30;100654.88;;;21.09;44.91
10712;BME280;5407;51.234;6.804;2022-11-20T02:27:58;100649.38;;;21.09;44.77
10712;BME280;5407;51.234;6.804;2022-11-20T02:30:25;100643.09;;;21.08;44.75
10712;BME280;5407;51.234;6.804;2022-11-20T02:32:52;100647.03;;;21.07;44.78
10712;BME280;5407;51.234;6.804;2022-11-20T02:35:43;100644.72;;;21.06;44.75
10712;BME280;5407;51.234;6.804;2022-11-20T02:38:11;100645.84;;;21.08;44.68
10712;BME280;5407;51.234;6.804;2022-11-20T02:40:39;100645.47;;;21.06;44.71
10712;BME280;5407;51.234;6.804;2022-11-20T02:43:07;100649.78;;;21.07;44.73
10712;BME280;5407;51.234;6.804;2022-11-20T02:45:34;100645.47;;;21.06;44.80
10712;BME280;5407;51.234;6.804;2022-11-20T02:48:02;100647.03;;;21.07;44.55
10712;BME280;5407;51.234;6.804;2022-11-20T02:50:29;100641.53;;;21.07;44.52
10712;BME280;5407;51.234;6.804;2022-11-20T02:52:55;100644.28;;;21.07;44.40
10712;BME280;5407;51.234;6.804;2022-11-20T02:55:22;100644.72;;;21.06;44.48
10712;BME280;5407;51.234;6.804;2022-11-20T02:57:50;100650.19;;;21.06;44.74
10712;BME280;5407;51.234;6.804;2022-11-20T03:00:18;100646.66;;;21.05;44.51
10712;BME280;5407;51.234;6.804;2022-11-20T03:02:45;100645.47;;;21.06;44.60
10712;BME280;5407;51.234;6.804;2022-11-20T03:05:12;100649.41;;;21.05;44.46
10712;BME280;5407;51.234;6.804;2022-11-20T03:07:39;100649.78;;;21.07;44.56
10712;BME280;5407;51.234;6.804;2022-11-20T03:10:06;100641.53;;;21.07;44.42
10712;BME280;5407;51.234;6.804;2022-11-20T03:12:33;100644.28;;;21.07;44.46
10712;BME280;5407;51.234;6.804;2022-11-20T03:15:02;100642.72;;;21.06;44.39
10712;BME280;5407;51.234;6.804;2022-11-20T03:17:29;100644.28;;;21.07;44.41
10712;BME280;5407;51.234;6.804;2022-11-20T03:19:56;100642.72;;;21.06;44.28
10712;BME280;5407;51.234;6.804;2022-11-20T03:22:23;100644.28;;;21.07;44.38
10712;BME280;5407;51.234;6.804;2022-11-20T03:24:49;100642.72;;;21.06;44.35
10712;BME280;5407;51.234;6.804;2022-11-20T03:27:17;100641.53;;;21.07;44.31
10712;BME280;5407;51.234;6.804;2022-11-20T03:29:44;100630.56;;;21.07;44.46
10712;BME280;5407;51.234;6.804;2022-11-20T03:32:13;100630.56;;;21.07;44.46
10712;BME280;5407;51.234;6.804;2022-11-20T03:34:39;100636.06;;;21.07;44.29
10712;BME280;5407;51.234;6.804;2022-11-20T03:37:06;100643.88;;;21.09;44.25
10712;BME280;5407;51.234;6.804;2022-11-20T03:39:33;100631.38;;;21.08;44.18
10712;BME280;5407;51.234;6.804;2022-11-20T03:42:00;100632.56;;;21.07;44.04
10712;BME280;5407;51.234;6.804;2022-11-20T03:44:27;100629.03;;;21.06;44.28
10712;BME280;5407;51.234;6.804;2022-11-20T03:46:54;100636.06;;;21.07;44.28
10712;BME280;5407;51.234;6.804;2022-11-20T03:49:22;100631.75;;;21.06;44.30
10712;BME280;5407;51.234;6.804;2022-11-20T03:51:49;100638.81;;;21.07;44.12
10712;BME280;5407;51.234;6.804;2022-11-20T03:54:16;100633.75;;;21.06;44.08
10712;BME280;5407;51.234;6.804;2022-11-20T03:56:43;100632.94;;;21.05;44.18
10712;BME280;5407;51.234;6.804;2022-11-20T03:59:10;100633.75;;;21.06;44.07
10712;BME280;5407;51.234;6.804;2022-11-20T04:01:37;100632.94;;;21.05;44.17
10712;BME280;5407;51.234;6.804;2022-11-20T04:04:04;100640.78;;;21.07;44.10
10712;BME280;5407;51.234;6.804;2022-11-20T04:06:37;100634.50;;;21.06;44.08
10712;BME280;5407;51.234;6.804;2022-11-20T04:09:05;100632.94;;;21.05;44.30
10712;BME280;5407;51.234;6.804;2022-11-20T04:11:33;100629.81;;;21.07;44.36
10712;BME280;5407;51.234;6.804;2022-11-20T04:14:02;100627.81;;;21.07;44.14
10712;BME280;5407;51.234;6.804;2022-11-20T04:16:31;100626.63;;;21.08;44.04
10712;BME280;5407;51.234;6.804;2022-11-20T04:19:00;100623.53;;;21.06;44.35
10712;BME280;5407;51.234;6.804;2022-11-20T04:21:27;100622.78;;;21.06;44.25
10712;BME280;5407;51.234;6.804;2022-11-20T04:23:56;100623.53;;;21.06;44.15
10712;BME280;5407;51.234;6.804;2022-11-20T04:26:25;100629.03;;;21.06;44.26
10712;BME280;5407;51.234;6.804;2022-11-20T04:28:52;100628.63;;;21.08;44.22
10712;BME280;5407;51.234;6.804;2022-11-20T04:31:21;100630.56;;;21.07;43.98
10712;BME280;5407;51.234;6.804;2022-11-20T04:33:49;100629.38;;;21.08;44.18
10712;BME280;5407;51.234;6.804;2022-11-20T04:36:18;100629.38;;;21.08;44.12
10712;BME280;5407;51.234;6.804;2022-11-20T04:38:45;100629.38;;;21.08;44.21
10712;BME280;5407;51.234;6.804;2022-11-20T04:41:16;100630.56;;;21.07;44.16
10712;BME280;5407;51.234;6.804;2022-11-20T04:43:46;100628.63;;;21.08;44.27
10712;BME280;5407;51.234;6.804;2022-11-20T04:46:14;100631.38;;;21.08;44.16
10712;BME280;5407;51.234;6.804;2022-11-20T04:48:41;100626.63;;;21.08;44.25
10712;BME280;5407;51.234;6.804;2022-11-20T04:51:08;100630.56;;;21.07;44.16
10712;BME280;5407;51.234;6.804;2022-11-20T04:53:35;100632.13;;;21.08;44.21
10712;BME280;5407;51.234;6.804;2022-11-20T04:56:03;100638.41;;;21.09;44.34
10712;BME280;5407;51.234;6.804;2022-11-20T04:58:33;100627.44;;;21.09;44.12
10712;BME280;5407;51.234;6.804;2022-11-20T05:01:01;100632.13;;;21.08;44.08
10712;BME280;5407;51.234;6.804;2022-11-20T05:03:29;100623.50;;;21.10;44.18
10712;BME280;5407;51.234;6.804;2022-11-20T05:05:57;100628.19;;;21.09;44.18
10712;BME280;5407;51.234;6.804;2022-11-20T05:08:26;100621.16;;;21.08;44.16
10712;BME280;5407;51.234;6.804;2022-11-20T05:10:53;100629.38;;;21.08;44.19
10712;BME280;5407;51.234;6.804;2022-11-20T05:13:19;100626.63;;;21.08;44.08
10712;BME280;5407;51.234;6.804;2022-11-20T05:15:47;100634.88;;;21.08;44.16
10712;BME280;5407;51.234;6.804;2022-11-20T05:18:14;100629.38;;;21.08;44.17
10712;BME280;5407;51.234;6.804;2022-11-20T05:20:41;100631.38;;;21.08;44.28
10712;BME280;5407;51.234;6.804;2022-11-20T05:23:08;100631.38;;;21.08;44.16
10712;BME280;5407;51.234;6.804;2022-11-20T05:25:35;100631.38;;;21.08;44.27
10712;BME280;5407;51.234;6.804;2022-11-20T05:28:02;100633.69;;;21.09;44.07
10712;BME280;5407;51.234;6.804;2022-11-20T05:30:29;100633.31;;;21.07;44.25
10712;BME280;5407;51.234;6.804;2022-11-20T05:32:57;100629.03;;;21.06;44.22
10712;BME280;5407;51.234;6.804;2022-11-20T05:35:24;100622.78;;;21.06;44.22
10712;BME280;5407;51.234;6.804;2022-11-20T05:37:50;100618.03;;;21.06;44.19
10712;BME280;5407;51.234;6.804;2022-11-20T05:40:17;100630.56;;;21.07;44.23
10712;BME280;5407;51.234;6.804;2022-11-20T05:42:44;100628.63;;;21.08;44.31
10712;BME280;5407;51.234;6.804;2022-11-20T05:45:11;100626.63;;;21.08;44.18
10712;BME280;5407;51.234;6.804;2022-11-20T05:47:38;100634.88;;;21.08;44.36
10712;BME280;5407;51.234;6.804;2022-11-20T05:50:07;100629.38;;;21.08;44.41
10712;BME280;5407;51.234;6.804;2022-11-20T05:52:34;100632.13;;;21.08;44.25
10712;BME280;5407;51.234;6.804;2022-11-20T05:55:00;100632.13;;;21.08;44.37
10712;BME280;5407;51.234;6.804;2022-11-20T05:57:27;100626.63;;;21.08;44.50
10712;BME280;5407;51.234;6.804;2022-11-20T05:59:54;100625.09;;;21.07;44.29
10712;BME280;5407;51.234;6.804;2022-11-20T06:02:21;100619.59;;;21.07;44.42
10712;BME280;5407;51.234;6.804;2022-11-20T06:04:48;100625.09;;;21.07;44.40
10712;BME280;5407;51.234;6.804;2022-11-20T06:07:16;100626.63;;;21.08;44.42
10712;BME280;5407;51.234;6.804;2022-11-20T06:09:43;100625.09;;;21.07;44.46
10712;BME280;5407;51.234;6.804;2022-11-20T06:12:10;100620.38;;;21.08;44.33
10712;BME280;5407;51.234;6.804;2022-11-20T06:14:36;100622.34;;;21.07;44.38
10712;BME280;5407;51.234;6.804;2022-11-20T06:17:03;100611.38;;;21.07;44.47
10712;BME280;5407;51.234;6.804;2022-11-20T06:19:30;100616.84;;;21.07;44.37
10712;BME280;5407;51.234;6.804;2022-11-20T06:21:57;100616.84;;;21.07;44.40
10712;BME280;5407;51.234;6.804;2022-11-20T06:24:25;100618.41;;;21.08;44.23
10712;BME280;5407;51.234;6.804;2022-11-20T06:26:52;100622.34;;;21.07;44.22
10712;BME280;5407;51.234;6.804;2022-11-20T06:29:19;100622.34;;;21.07;44.34
10712;BME280;5407;51.234;6.804;2022-11-20T06:31:46;100618.03;;;21.06;44.42
10712;BME280;5407;51.234;6.804;2022-11-20T06:34:12;100625.09;;;21.07;44.33
10712;BME280;5407;51.234;6.804;2022-11-20T06:36:39;100625.50;;;21.06;44.21
10712;BME280;5407;51.234;6.804;2022-11-20T06:39:06;100632.94;;;21.05;44.61
10712;BME280;5407;51.234;6.804;2022-11-20T06:41:34;100626.72;;;21.05;44.41
10712;BME280;5407;51.234;6.804;2022-11-20T06:44:03;100631.75;;;21.06;44.52
10712;BME280;5407;51.234;6.804;2022-11-20T06:46:30;100635.28;;;21.07;44.37
10712;BME280;5407;51.234;6.804;2022-11-20T06:48:57;100634.09;;;21.08;44.68
10712;BME280;5407;51.234;6.804;2022-11-20T06:51:24;100643.09;;;21.08;44.32
10712;BME280;5407;51.234;6.804;2022-11-20T06:53:51;100632.50;;;21.10;44.34
10712;BME280;5407;51.234;6.804;2022-11-20T06:56:19;100630.53;;;21.11;44.40
10712;BME280;5407;51.234;6.804;2022-11-20T06:58:47;100619.56;;;21.11;44.25
10712;BME280;5407;51.234;6.804;2022-11-20T07:01:15;100625.84;;;21.11;44.41
10712;BME280;5407;51.234;6.804;2022-11-20T07:03:42;100625.06;;;21.11;44.23
10712;BME280;5407;51.234;6.804;2022-11-20T07:06:09;100636.81;;;21.11;44.26
10712;BME280;5407;51.234;6.804;2022-11-20T07:08:36;100643.84;;;21.12;44.21
10712;BME280;5407;51.234;6.804;2022-11-20T07:11:05;100642.31;;;21.11;44.29
10712;BME280;5407;51.234;6.804;2022-11-20T07:13:32;100647.78;;;21.11;44.19
10712;BME280;5407;51.234;6.804;2022-11-20T07:16:01;100650.53;;;21.11;44.16
10712;BME280;5407;51.234;6.804;2022-11-20T07:18:29;100653.28;;;21.11;44.12
10712;BME280;5407;51.234;6.804;2022-11-20T07:20:56;100653.28;;;21.11;44.04
10712;BME280;5407;51.234;6.804;2022-11-20T07:23:22;100657.97;;;21.11;44.04
10712;BME280;5407;51.234;6.804;2022-11-20T07:25:49;100656.78;;;21.12;44.05
10712;BME280;5407;51.234;6.804;2022-11-20T07:28:16;100653.28;;;21.11;43.99
10712;BME280;5407;51.234;6.804;2022-11-20T07:30:49;100651.69;;;21.10;44.10
10712;BME280;5407;51.234;6.804;2022-11-20T07:33:18;100650.13;;;21.09;44.06
10712;BME280;5407;51.234;6.804;2022-11-20T07:35:45;100649.75;;;21.11;44.13
10712;BME280;5407;51.234;6.804;2022-11-20T07:38:12;100654.44;;;21.10;44.05
10712;BME280;5407;51.234;6.804;2022-11-20T07:40:39;100650.94;;;21.10;44.03
10712;BME280;5407;51.234;6.804;2022-11-20T07:43:06;100656.03;;;21.11;44.11
10712;BME280;5407;51.234;6.804;2022-11-20T07:45:33;100646.22;;;21.10;44.18
10712;BME280;5407;51.234;6.804;2022-11-20T07:47:59;100643.88;;;21.09;44.19
10712;BME280;5407;51.234;6.804;2022-11-20T07:50:28;100643.16;;;21.05;44.26
10712;BME280;5407;51.234;6.804;2022-11-20T07:53:00;100642.38;;;21.04;44.40
10712;BME280;5407;51.234;6.804;2022-11-20T07:55:28;100638.44;;;21.05;44.55
10712;BME280;5407;51.234;6.804;2022-11-20T07:57:55;100641.53;;;21.07;44.75
10712;BME280;5407;51.234;6.804;2022-11-20T08:00:22;100641.53;;;21.07;44.60
10712;BME280;5407;51.234;6.804;2022-11-20T08:02:49;100638.41;;;21.09;44.77
10712;BME280;5407;51.234;6.804;2022-11-20T08:05:17;100636.84;;;21.08;44.72
10712;BME280;5407;51.234;6.804;2022-11-20T08:07:45;100630.19;;;21.09;44.68
10712;BME280;5407;51.234;6.804;2022-11-20T08:10:13;100620.75;;;21.10;44.71
10712;BME280;5407;51.234;6.804;2022-11-20T08:12:44;100622.72;;;21.09;44.51
10712;BME280;5407;51.234;6.804;2022-11-20T08:15:30;100625.84;;;21.11;44.60
10712;BME280;5407;51.234;6.804;2022-11-20T08:18:04;100627.00;;;21.10;44.55
10712;BME280;5407;51.234;6.804;2022-11-20T08:20:31;100631.31;;;21.11;44.53
10712;BME280;5407;51.234;6.804;2022-11-20T08:23:00;100631.31;;;21.11;44.52
10712;BME280;5407;51.234;6.804;2022-11-20T08:25:28;100637.56;;;21.12;44.44
10712;BME280;5407;51.234;6.804;2022-11-20T08:27:57;100635.22;;;21.10;44.59
10712;BME280;5407;51.234;6.804;2022-11-20T08:30:24;100640.72;;;21.10;44.49
10712;BME280;5407;51.234;6.804;2022-11-20T08:32:51;100644.66;;;21.09;44.36
10712;BME280;5407;51.234;6.804;2022-11-20T08:35:18;100639.16;;;21.09;44.36
10712;BME280;5407;51.234;6.804;2022-11-20T08:37:46;100640.34;;;21.08;44.40
10712;BME280;5407;51.234;6.804;2022-11-20T08:40:14;100638.03;;;21.07;44.47
10712;BME280;5407;51.234;6.804;2022-11-20T08:42:48;100638.44;;;21.05;44.46
10712;BME280;5407;51.234;6.804;2022-11-20T08:45:16;100634.50;;;21.06;44.57
10712;BME280;5407;51.234;6.804;2022-11-20T08:47:43;100629.03;;;21.06;44.39
10712;BME280;5407;51.234;6.804;2022-11-20T08:50:11;100632.94;;;21.05;44.46
10712;BME280;5407;51.234;6.804;2022-11-20T08:52:39;100638.44;;;21.05;44.54
10712;BME280;5407;51.234;6.804;2022-11-20T08:55:07;100635.69;;;21.05;44.62
10712;BME280;5407;51.234;6.804;2022-11-20T08:57:36;100634.94;;;21.05;44.49
10712;BME280;5407;51.234;6.804;2022-11-20T09:00:04;100636.88;;;21.04;44.37
10712;BME280;5407;51.234;6.804;2022-11-20T09:02:31;100645.13;;;21.04;44.37
10712;BME280;5407;51.234;6.804;2022-11-20T09:04:59;100647.84;;;21.04;44.21
10712;BME280;5407;51.234;6.804;2022-11-20T09:07:28;100640.81;;;21.03;44.25
10712;BME280;5407;51.234;6.804;2022-11-20T09:09:55;100634.56;;;21.03;44.48
10712;BME280;5407;51.234;6.804;2022-11-20T09:12:22;100631.81;;;21.03;44.29
10712;BME280;5407;51.234;6.804;2022-11-20T09:14:50;100631.41;;;21.04;44.20
10712;BME280;5407;51.234;6.804;2022-11-20T09:17:17;100625.91;;;21.04;44.26
10712;BME280;5407;51.234;6.804;2022-11-20T09:19:46;100627.09;;;21.03;44.41
10712;BME280;5407;51.234;6.804;2022-11-20T09:22:13;100625.16;;;21.04;44.39
10712;BME280;5407;51.234;6.804;2022-11-20T09:24:40;100618.88;;;21.03;44.29
10712;BME280;5407;51.234;6.804;2022-11-20T09:27:08;100618.88;;;21.03;44.18
10712;BME280;5407;51.234;6.804;2022-11-20T09:29:35;100613.38;;;21.03;44.37
10712;BME280;5407;51.234;6.804;2022-11-20T09:32:03;100607.13;;;21.03;44.32
10712;BME280;5407;51.234;6.804;2022-11-20T09:34:31;100607.91;;;21.03;44.15
10712;BME280;5407;51.234;6.804;2022-11-20T09:36:58;100610.66;;;21.03;44.27
10712;BME280;5407;51.234;6.804;2022-11-20T09:39:25;100609.88;;;21.03;44.19
10712;BME280;5407;51.234;6.804;2022-11-20T09:42:08;100611.84;;;21.02;44.24
10712;BME280;5407;51.234;6.804;2022-11-20T09:44:49;100612.63;;;21.03;44.32
10712;BME280;5407;51.234;6.804;2022-11-20T09:47:27;100607.91;;;21.03;44.21
10712;BME280;5407;51.234;6.804;2022-11-20T09:50:11;100609.09;;;21.02;44.27
10712;BME280;5407;51.234;6.804;2022-11-20T09:52:51;100603.22;;;21.04;44.19
10712;BME280;5407;51.234;6.804;2022-11-20T09:55:21;100605.94;;;21.04;44.27
10712;BME280;5407;51.234;6.804;2022-11-20T09:57:51;100609.44;;;21.04;44.12
10712;BME280;5407;51.234;6.804;2022-11-20T10:00:19;100605.16;;;21.03;43.98
10712;BME280;5407;51.234;6.804;2022-11-20T10:02:52;100610.66;;;21.03;44.08
10712;BME280;5407;51.234;6.804;2022-11-20T10:05:25;100607.91;;;21.03;44.05
10712;BME280;5407;51.234;6.804;2022-11-20T10:08:01;100611.44;;;21.04;44.02
10712;BME280;5407;51.234;6.804;2022-11-20T10:10:40;100607.91;;;21.03;44.09
10712;BME280;5407;51.234;6.804;2022-11-20T10:13:20;100610.66;;;21.03;43.98
10712;BME280;5407;51.234;6.804;2022-11-20T10:16:02;100602.41;;;21.03;43.96
10712;BME280;5407;51.234;6.804;2022-11-20T10:18:44;100595.38;;;21.02;44.00
10712;BME280;5407;51.234;6.804;2022-11-20T10:21:22;100598.47;;;21.04;43.92
10712;BME280;5407;51.234;6.804;2022-11-20T10:24:14;100589.06;;;21.05;44.01
10712;BME280;5407;51.234;6.804;2022-11-20T10:26:54;100589.50;;;21.04;44.12
10712;BME280;5407;51.234;6.804;2022-11-20T10:29:29;100582.09;;;21.01;44.35
10712;BME280;5407;51.234;6.804;2022-11-20T10:32:02;100571.53;;;20.99;44.39
10712;BME280;5407;51.234;6.804;2022-11-20T10:34:34;100564.84;;;21.00;44.48
10712;BME280;5407;51.234;6.804;2022-11-20T10:37:09;100568.03;;;20.99;44.48
10712;BME280;5407;51.234;6.804;2022-11-20T10:39:42;100559.44;;;20.97;44.73
10712;BME280;5407;51.234;6.804;2022-11-20T10:42:17;100561.75;;;20.98;45.27
10712;BME280;5407;51.234;6.804;2022-11-20T10:44:52;100555.44;;;21.01;45.64
10712;BME280;5407;51.234;6.804;2022-11-20T10:47:28;100549.13;;;21.04;45.53
10712;BME280;5407;51.234;6.804;2022-11-20T10:50:02;100547.56;;;21.03;45.65
10712;BME280;5407;51.234;6.804;2022-11-20T10:52:34;100549.91;;;21.05;45.51
10712;BME280;5407;51.234;6.804;2022-11-20T10:55:11;100537.31;;;21.07;45.53
10712;BME280;5407;51.234;6.804;2022-11-20T10:57:52;100542.78;;;21.07;45.50
10712;BME280;5407;51.234;6.804;2022-11-20T11:00:20;100533.34;;;21.12;45.67
10712;BME280;5407;51.234;6.804;2022-11-20T11:02:49;100534.88;;;21.13;45.07
10712;BME280;5407;51.234;6.804;2022-11-20T11:05:32;100537.63;;;21.13;45.59
10712;BME280;5407;51.234;6.804;2022-11-20T11:08:01;100523.16;;;21.12;45.24
10712;BME280;5407;51.234;6.804;2022-11-20T11:10:39;100519.22;;;21.13;45.20
10712;BME280;5407;51.234;6.804;2022-11-20T11:13:19;100512.19;;;21.12;45.18
10712;BME280;5407;51.234;6.804;2022-11-20T11:15:47;100503.94;;;21.12;45.12
10712;BME280;5407;51.234;6.804;2022-11-20T11:18:24;100505.13;;;21.11;45.18
10712;BME280;5407;51.234;6.804;2022-11-20T11:20:54;100500.41;;;21.12;44.98
10712;BME280;5407;51.234;6.804;2022-11-20T11:23:32;100494.16;;;21.11;45.04
10712;BME280;5407;51.234;6.804;2022-11-20T11:26:02;100495.72;;;21.12;44.95
10712;BME280;5407;51.234;6.804;2022-11-20T11:28:29;100488.69;;;21.11;44.88
10712;BME280;5407;51.234;6.804;2022-11-20T11:30:57;100489.44;;;21.12;45.01
10712;BME280;5407;51.234;6.804;2022-11-20T11:33:25;100477.72;;;21.11;44.87
10712;BME280;5407;51.234;6.804;2022-11-20T11:35:55;100478.47;;;21.12;44.80
10712;BME280;5407;51.234;6.804;2022-11-20T11:38:29;100477.72;;;21.11;44.91
10712;BME280;5407;51.234;6.804;2022-11-20T11:40:57;100466.75;;;21.11;44.67
10712;BME280;5407;51.234;6.804;2022-11-20T11:43:25;100463.19;;;21.11;44.91
10712;BME280;5407;51.234;6.804;2022-11-20T11:46:28;100459.66;;;21.10;44.80
10712;BME280;5407;51.234;6.804;2022-11-20T11:48:57;100460.88;;;21.09;44.72
10712;BME280;5407;51.234;6.804;2022-11-20T11:51:31;100453.81;;;21.08;44.76
10712;BME280;5407;51.234;6.804;2022-11-20T11:54:00;100447.16;;;21.09;44.76
10712;BME280;5407;51.234;6.804;2022-11-20T11:56:30;100430.69;;;21.09;44.84
10712;BME280;5407;51.234;6.804;2022-11-20T11:59:04;100427.94;;;21.09;44.56
10712;BME280;5407;51.234;6.804;2022-11-20T12:01:39;100424.44;;;21.09;44.67
10712;BME280;5407;51.234;6.804;2022-11-20T12:04:16;100424.44;;;21.09;44.84
10712;BME280;5407;51.234;6.804;2022-11-20T12:06:50;100425.19;;;21.09;44.77
10712;BME280;5407;51.234;6.804;2022-11-20T12:09:19;100416.97;;;21.09;44.76
10712;BME280;5407;51.234;6.804;2022-11-20T12:11:52;100412.69;;;21.08;44.67
10712;BME280;5407;51.234;6.804;2022-11-20T12:14:27;100421.69;;;21.09;44.70
10712;BME280;5407;51.234;6.804;2022-11-20T12:17:00;100411.50;;;21.09;44.72
10712;BME280;5407;51.234;6.804;2022-11-20T12:19:29;100419.72;;;21.09;44.65
10712;BME280;5407;51.234;6.804;2022-11-20T12:22:05;100406.44;;;21.08;44.68
10712;BME280;5407;51.234;6.804;2022-11-20T12:24:49;100401.72;;;21.08;44.63
10712;BME280;5407;51.234;6.804;2022-11-20T12:27:48;100397.00;;;21.09;44.82
10712;BME280;5407;51.234;6.804;2022-11-20T12:30:20;100400.53;;;21.09;44.60
10712;BME280;5407;51.234;6.804;2022-11-20T12:33:02;100396.22;;;21.08;44.71
10712;BME280;5407;51.234;6.804;2022-11-20T12:35:42;100395.03;;;21.09;44.60
10712;BME280;5407;51.234;6.804;2022-11-20T12:38:38;100395.47;;;21.08;44.54
10712;BME280;5407;51.234;6.804;2022-11-20T12:41:14;100388.00;;;21.08;44.75
10712;BME280;5407;51.234;6.804;2022-11-20T12:44:14;100389.53;;;21.09;44.82
10712;BME280;5407;51.234;6.804;2022-11-20T12:47:19;100371.91;;;21.10;44.62
10712;BME280;5407;51.234;6.804;2022-11-20T12:49:57;100376.63;;;21.10;44.77
10712;BME280;5407;51.234;6.804;2022-11-20T12:52:37;100373.09;;;21.09;44.78
10712;BME280;5407;51.234;6.804;2022-11-20T12:55:25;100375.81;;;21.09;44.65
10712;BME280;5407;51.234;6.804;2022-11-20T12:57:58;100367.97;;;21.11;44.66
10712;BME280;5407;51.234;6.804;2022-11-20T13:00:26;100360.91;;;21.10;44.61
10712;BME280;5407;51.234;6.804;2022-11-20T13:03:23;100345.66;;;21.09;44.67
10712;BME280;5407;51.234;6.804;2022-11-20T13:05:59;100344.47;;;21.10;44.57
10712;BME280;5407;51.234;6.804;2022-11-20T13:08:33;100338.97;;;21.10;44.60
10712;BME280;5407;51.234;6.804;2022-11-20T13:11:09;100332.72;;;21.10;44.70
10712;BME280;5407;51.234;6.804;2022-11-20T13:13:59;100331.53;;;21.11;44.61
10712;BME280;5407;51.234;6.804;2022-11-20T13:16:33;100329.59;;;21.11;44.57